EDW230 LSZH-GCLA
Flight info
| Callsign | EDW230 |
|---|---|
| Flight time | N/A |
| Altitude | 33000 |
| Route | VEBIT T50 ROTOS Z669 ULMES DCT VADAR DCT NINTU DCT MEBAK DCT REPSI/N0460F350 DCT LERGA DCT MINSO DCT NARAK DCT AGN DCT LATEK N995 PPN N976 NEA L14 ADINO DCT ELVAR DCT GAIOS DCT BEXAL UN866 KONBA |
| Aircraft | A320/M-SDE3FGHIRWY/LB1 |
Departure
| Time | N/A |
|---|---|
| Airport | Zürich Airport (LSZH) |
Arrival
| Time | 2026-05-06 12:58 |
|---|---|
| Airport | La Palma Airport (GCLA) |
| Time | Latitude | Longitude | Altitude | Speed | Heading |
|---|---|---|---|---|---|
| 2026-05-06 10:28 | 41.98454 | -4.15971 | 33007 ft | 440 kts | 224° |
| 2026-05-06 10:28 | 41.95391 | -4.19552 | 33006 ft | 440 kts | 224° |
| 2026-05-06 10:29 | 41.90776 | -4.24957 | 33135 ft | 440 kts | 224° |
| 2026-05-06 10:29 | 41.86168 | -4.30338 | 33300 ft | 438 kts | 224° |
| 2026-05-06 10:30 | 41.82319 | -4.34828 | 33439 ft | 438 kts | 224° |
| 2026-05-06 10:30 | 41.77721 | -4.40175 | 33597 ft | 437 kts | 224° |
| 2026-05-06 10:31 | 41.73133 | -4.45507 | 33765 ft | 437 kts | 224° |
| 2026-05-06 10:31 | 41.68542 | -4.50831 | 33906 ft | 436 kts | 224° |
| 2026-05-06 10:32 | 41.63991 | -4.56094 | 34063 ft | 435 kts | 224° |
| 2026-05-06 10:32 | 41.59413 | -4.61386 | 34191 ft | 436 kts | 224° |
| 2026-05-06 10:33 | 41.54823 | -4.66684 | 34329 ft | 436 kts | 224° |
| 2026-05-06 10:33 | 41.50227 | -4.71971 | 34487 ft | 436 kts | 224° |
| 2026-05-06 10:34 | 41.45627 | -4.77242 | 34602 ft | 436 kts | 224° |
| 2026-05-06 10:34 | 41.41039 | -4.82499 | 34750 ft | 434 kts | 224° |
| 2026-05-06 10:35 | 41.36457 | -4.87739 | 34984 ft | 434 kts | 224° |
| 2026-05-06 10:35 | 41.31873 | -4.92972 | 35010 ft | 434 kts | 224° |
| 2026-05-06 10:36 | 41.27285 | -4.98200 | 35012 ft | 435 kts | 223° |
| 2026-05-06 10:36 | 41.22684 | -5.03425 | 35004 ft | 434 kts | 223° |
| 2026-05-06 10:37 | 41.18094 | -5.08627 | 35013 ft | 433 kts | 223° |
| 2026-05-06 10:37 | 41.13505 | -5.13820 | 35015 ft | 433 kts | 223° |
| 2026-05-06 10:38 | 41.08951 | -5.18964 | 35015 ft | 433 kts | 223° |
| 2026-05-06 10:38 | 41.04362 | -5.24142 | 35020 ft | 433 kts | 223° |
| 2026-05-06 10:39 | 40.99768 | -5.29309 | 35012 ft | 433 kts | 223° |
| 2026-05-06 10:39 | 40.95177 | -5.34467 | 35022 ft | 433 kts | 223° |
| 2026-05-06 10:40 | 40.90588 | -5.39616 | 35028 ft | 433 kts | 223° |
| 2026-05-06 10:40 | 40.85997 | -5.44765 | 35028 ft | 433 kts | 223° |
| 2026-05-06 10:41 | 40.81398 | -5.49900 | 35022 ft | 433 kts | 223° |
| 2026-05-06 10:41 | 40.76792 | -5.55031 | 34978 ft | 433 kts | 223° |
| 2026-05-06 10:42 | 40.72197 | -5.60148 | 34999 ft | 432 kts | 223° |
| 2026-05-06 10:42 | 40.67599 | -5.65250 | 35001 ft | 432 kts | 223° |
| 2026-05-06 10:43 | 40.63001 | -5.70336 | 35006 ft | 432 kts | 223° |
| 2026-05-06 10:44 | 40.56138 | -5.77937 | 34997 ft | 432 kts | 223° |
| 2026-05-06 10:44 | 40.51537 | -5.83023 | 34991 ft | 432 kts | 223° |
| 2026-05-06 10:45 | 40.46930 | -5.88108 | 34988 ft | 432 kts | 223° |
| 2026-05-06 10:45 | 40.42287 | -5.93217 | 34986 ft | 433 kts | 222° |
| 2026-05-06 10:46 | 40.37669 | -5.98274 | 34987 ft | 433 kts | 222° |
| 2026-05-06 10:46 | 40.33080 | -6.03303 | 34982 ft | 433 kts | 222° |
| 2026-05-06 10:47 | 40.28466 | -6.08357 | 34985 ft | 432 kts | 222° |
| 2026-05-06 10:47 | 40.23844 | -6.13398 | 34985 ft | 433 kts | 222° |
| 2026-05-06 10:48 | 40.19217 | -6.18437 | 34984 ft | 433 kts | 222° |
| 2026-05-06 10:48 | 40.14586 | -6.23469 | 34986 ft | 433 kts | 222° |
| 2026-05-06 10:49 | 40.09954 | -6.28502 | 34989 ft | 433 kts | 222° |
| 2026-05-06 10:49 | 40.05323 | -6.33523 | 34976 ft | 432 kts | 222° |
| 2026-05-06 10:50 | 40.00694 | -6.38528 | 34990 ft | 432 kts | 222° |
| 2026-05-06 10:50 | 39.96070 | -6.43521 | 34999 ft | 431 kts | 222° |
| 2026-05-06 10:51 | 39.91445 | -6.48507 | 34998 ft | 431 kts | 222° |
| 2026-05-06 10:51 | 39.86818 | -6.53491 | 34992 ft | 432 kts | 221° |
| 2026-05-06 10:52 | 39.82185 | -6.58469 | 34981 ft | 432 kts | 221° |
| 2026-05-06 10:52 | 39.77552 | -6.63432 | 34989 ft | 431 kts | 221° |
| 2026-05-06 10:53 | 39.72916 | -6.68381 | 34993 ft | 431 kts | 221° |
| 2026-05-06 10:53 | 39.68282 | -6.73328 | 34999 ft | 431 kts | 221° |
| 2026-05-06 10:54 | 39.63681 | -6.78243 | 34999 ft | 431 kts | 221° |
| 2026-05-06 10:54 | 39.59048 | -6.83173 | 34989 ft | 431 kts | 221° |
| 2026-05-06 10:55 | 39.54409 | -6.88091 | 34993 ft | 431 kts | 221° |
| 2026-05-06 10:55 | 39.49770 | -6.93018 | 34992 ft | 431 kts | 221° |
| 2026-05-06 10:56 | 39.45123 | -6.97936 | 34987 ft | 432 kts | 221° |
| 2026-05-06 10:56 | 39.40469 | -7.02846 | 34992 ft | 432 kts | 221° |
| 2026-05-06 10:57 | 39.35813 | -7.07752 | 34975 ft | 432 kts | 221° |
| 2026-05-06 10:57 | 39.31162 | -7.12649 | 34989 ft | 431 kts | 221° |
| 2026-05-06 10:58 | 39.26513 | -7.17537 | 34998 ft | 431 kts | 221° |
| 2026-05-06 10:58 | 39.21901 | -7.22474 | 34999 ft | 430 kts | 226° |
| 2026-05-06 10:59 | 39.17868 | -7.28142 | 34995 ft | 429 kts | 230° |
| 2026-05-06 10:59 | 39.13868 | -7.33851 | 34994 ft | 429 kts | 229° |
| 2026-05-06 11:00 | 39.09854 | -7.39552 | 34987 ft | 429 kts | 229° |
| 2026-05-06 11:00 | 39.05840 | -7.45244 | 34999 ft | 429 kts | 229° |
| 2026-05-06 11:01 | 39.01828 | -7.50926 | 35004 ft | 429 kts | 229° |
| 2026-05-06 11:01 | 38.97840 | -7.56567 | 35005 ft | 429 kts | 229° |
| 2026-05-06 11:02 | 38.93818 | -7.62236 | 35007 ft | 429 kts | 229° |
| 2026-05-06 11:02 | 38.89795 | -7.67908 | 35005 ft | 430 kts | 229° |
| 2026-05-06 11:03 | 38.85773 | -7.73586 | 34993 ft | 430 kts | 229° |
| 2026-05-06 11:03 | 38.81731 | -7.79243 | 34997 ft | 430 kts | 229° |
| 2026-05-06 11:04 | 38.77695 | -7.84898 | 35001 ft | 430 kts | 229° |
| 2026-05-06 11:04 | 38.73656 | -7.90555 | 35010 ft | 430 kts | 229° |
| 2026-05-06 11:05 | 38.69614 | -7.96201 | 35010 ft | 430 kts | 229° |
| 2026-05-06 11:05 | 38.65570 | -8.01844 | 35010 ft | 430 kts | 229° |
| 2026-05-06 11:06 | 38.61519 | -8.07477 | 35012 ft | 430 kts | 229° |
| 2026-05-06 11:06 | 38.57465 | -8.13096 | 35009 ft | 430 kts | 229° |
| 2026-05-06 11:07 | 38.53414 | -8.18711 | 35015 ft | 430 kts | 229° |
| 2026-05-06 11:07 | 38.49362 | -8.24320 | 35014 ft | 429 kts | 229° |
| 2026-05-06 11:08 | 38.45307 | -8.29915 | 35019 ft | 429 kts | 229° |
| 2026-05-06 11:08 | 38.41252 | -8.35509 | 35025 ft | 430 kts | 229° |
| 2026-05-06 11:09 | 38.37186 | -8.41098 | 35022 ft | 430 kts | 229° |
| 2026-05-06 11:09 | 38.33115 | -8.46686 | 35008 ft | 430 kts | 229° |
| 2026-05-06 11:10 | 38.29040 | -8.52275 | 35013 ft | 431 kts | 229° |
| 2026-05-06 11:10 | 38.24966 | -8.57796 | 35023 ft | 431 kts | 228° |
| 2026-05-06 11:11 | 38.20782 | -8.63273 | 35031 ft | 432 kts | 227° |
| 2026-05-06 11:11 | 38.16583 | -8.68724 | 35041 ft | 432 kts | 227° |
| 2026-05-06 11:12 | 38.12397 | -8.74206 | 35030 ft | 432 kts | 228° |
| 2026-05-06 11:12 | 38.08213 | -8.79692 | 35037 ft | 433 kts | 228° |
| 2026-05-06 11:13 | 38.04015 | -8.85183 | 35035 ft | 433 kts | 228° |
| 2026-05-06 11:13 | 37.99813 | -8.90667 | 35025 ft | 434 kts | 228° |
| 2026-05-06 11:14 | 37.95603 | -8.96142 | 35034 ft | 434 kts | 228° |
| 2026-05-06 11:14 | 37.91385 | -9.01619 | 35036 ft | 434 kts | 228° |
| 2026-05-06 11:15 | 37.87168 | -9.07095 | 35041 ft | 434 kts | 228° |
| 2026-05-06 11:15 | 37.82942 | -9.12573 | 35036 ft | 435 kts | 228° |
| 2026-05-06 11:16 | 37.78701 | -9.18057 | 35028 ft | 437 kts | 228° |
| 2026-05-06 11:16 | 37.74447 | -9.23544 | 35030 ft | 437 kts | 228° |
| 2026-05-06 11:17 | 37.70212 | -9.28999 | 35038 ft | 438 kts | 228° |
| 2026-05-06 11:17 | 37.65943 | -9.34484 | 35036 ft | 438 kts | 228° |
| 2026-05-06 11:18 | 37.61664 | -9.39970 | 35043 ft | 438 kts | 228° |
| 2026-05-06 11:18 | 37.57385 | -9.45446 | 35028 ft | 439 kts | 227° |
| 2026-05-06 11:19 | 37.53097 | -9.50930 | 35035 ft | 440 kts | 228° |
| 2026-05-06 11:19 | 37.48797 | -9.56433 | 35039 ft | 441 kts | 228° |
| 2026-05-06 11:20 | 37.44485 | -9.61934 | 35042 ft | 442 kts | 228° |
| 2026-05-06 11:20 | 37.40891 | -9.66509 | 35046 ft | 442 kts | 228° |
| 2026-05-06 11:21 | 37.36566 | -9.72010 | 35054 ft | 442 kts | 228° |
| 2026-05-06 11:21 | 37.32237 | -9.77510 | 35056 ft | 443 kts | 228° |
| 2026-05-06 11:22 | 37.27897 | -9.82996 | 35053 ft | 442 kts | 227° |
| 2026-05-06 11:22 | 37.23551 | -9.88475 | 35045 ft | 444 kts | 228° |
| 2026-05-06 11:23 | 37.19193 | -9.93973 | 35037 ft | 445 kts | 228° |
| 2026-05-06 11:23 | 37.14826 | -9.99479 | 35047 ft | 445 kts | 228° |
| 2026-05-06 11:24 | 37.10452 | -10.04985 | 35050 ft | 446 kts | 228° |
| 2026-05-06 11:24 | 37.06072 | -10.10492 | 35052 ft | 446 kts | 228° |
| 2026-05-06 11:25 | 37.01683 | -10.15990 | 35049 ft | 446 kts | 228° |
| 2026-05-06 11:25 | 36.97293 | -10.21483 | 35045 ft | 446 kts | 228° |
| 2026-05-06 11:26 | 36.92888 | -10.26973 | 35042 ft | 448 kts | 228° |
| 2026-05-06 11:26 | 36.88470 | -10.32476 | 35050 ft | 449 kts | 228° |
| 2026-05-06 11:27 | 36.84046 | -10.37999 | 35056 ft | 450 kts | 228° |
| 2026-05-06 11:27 | 36.79607 | -10.43519 | 35069 ft | 451 kts | 228° |
| 2026-05-06 11:28 | 36.75216 | -10.48956 | 35060 ft | 451 kts | 227° |
| 2026-05-06 11:28 | 36.70762 | -10.54453 | 35072 ft | 451 kts | 227° |
| 2026-05-06 11:29 | 36.66306 | -10.59947 | 35066 ft | 451 kts | 227° |
| 2026-05-06 11:29 | 36.61855 | -10.65444 | 35065 ft | 451 kts | 227° |
| 2026-05-06 11:30 | 36.57391 | -10.70949 | 35071 ft | 452 kts | 227° |
| 2026-05-06 11:30 | 36.52923 | -10.76447 | 35084 ft | 452 kts | 227° |
| 2026-05-06 11:31 | 36.48449 | -10.81944 | 35073 ft | 452 kts | 227° |
| 2026-05-06 11:31 | 36.43967 | -10.87437 | 35097 ft | 452 kts | 227° |
| 2026-05-06 11:32 | 36.39489 | -10.92920 | 35098 ft | 452 kts | 227° |
| 2026-05-06 11:32 | 36.35004 | -10.98395 | 35088 ft | 452 kts | 227° |
| 2026-05-06 11:33 | 36.30515 | -11.03852 | 35096 ft | 452 kts | 227° |
| 2026-05-06 11:33 | 36.26031 | -11.09298 | 35098 ft | 451 kts | 227° |
| 2026-05-06 11:34 | 36.21549 | -11.14749 | 35089 ft | 451 kts | 227° |
| 2026-05-06 11:34 | 36.17097 | -11.20161 | 35097 ft | 452 kts | 227° |
| 2026-05-06 11:35 | 36.12609 | -11.25605 | 35100 ft | 452 kts | 227° |
| 2026-05-06 11:35 | 36.08111 | -11.31035 | 35107 ft | 452 kts | 227° |
| 2026-05-06 11:36 | 36.03615 | -11.36459 | 35108 ft | 451 kts | 227° |
| 2026-05-06 11:36 | 35.99118 | -11.41865 | 35117 ft | 451 kts | 227° |
| 2026-05-06 11:37 | 35.94342 | -11.46888 | 35108 ft | 454 kts | 219° |
| 2026-05-06 11:37 | 35.89194 | -11.51401 | 35106 ft | 454 kts | 219° |
| 2026-05-06 11:38 | 35.84052 | -11.55919 | 35107 ft | 454 kts | 219° |
| 2026-05-06 11:38 | 35.78912 | -11.60430 | 35109 ft | 454 kts | 219° |
| 2026-05-06 11:39 | 35.73761 | -11.64927 | 35113 ft | 454 kts | 218° |
| 2026-05-06 11:39 | 35.68616 | -11.69416 | 35112 ft | 453 kts | 219° |
| 2026-05-06 11:40 | 35.63477 | -11.73907 | 35096 ft | 453 kts | 219° |
| 2026-05-06 11:40 | 35.58339 | -11.78386 | 35105 ft | 453 kts | 219° |
| 2026-05-06 11:41 | 35.53193 | -11.82859 | 35102 ft | 453 kts | 218° |
| 2026-05-06 11:41 | 35.48042 | -11.87322 | 35107 ft | 453 kts | 218° |
| 2026-05-06 11:42 | 35.42888 | -11.91792 | 35114 ft | 454 kts | 218° |
| 2026-05-06 11:42 | 35.37732 | -11.96252 | 35117 ft | 454 kts | 218° |
| 2026-05-06 11:43 | 35.32578 | -12.00703 | 35114 ft | 453 kts | 218° |
| 2026-05-06 11:43 | 35.27430 | -12.05154 | 35111 ft | 452 kts | 218° |
| 2026-05-06 11:44 | 35.19755 | -12.11772 | 35120 ft | 452 kts | 218° |
| 2026-05-06 11:44 | 35.14611 | -12.16186 | 35122 ft | 452 kts | 218° |
| 2026-05-06 11:45 | 35.09468 | -12.20593 | 35111 ft | 451 kts | 218° |
| 2026-05-06 11:45 | 35.04327 | -12.24991 | 35117 ft | 451 kts | 218° |
| 2026-05-06 11:46 | 34.99193 | -12.29383 | 35116 ft | 451 kts | 218° |
| 2026-05-06 11:46 | 34.94056 | -12.33760 | 35121 ft | 450 kts | 218° |
| 2026-05-06 11:47 | 34.88923 | -12.38135 | 35118 ft | 450 kts | 218° |
| 2026-05-06 11:47 | 34.83793 | -12.42508 | 35088 ft | 450 kts | 218° |
| 2026-05-06 11:48 | 34.78670 | -12.46879 | 35105 ft | 449 kts | 218° |
| 2026-05-06 11:48 | 34.73541 | -12.51235 | 35120 ft | 450 kts | 218° |
| 2026-05-06 11:49 | 34.68401 | -12.55571 | 35120 ft | 449 kts | 218° |
| 2026-05-06 11:49 | 34.63271 | -12.59906 | 35118 ft | 449 kts | 218° |
| 2026-05-06 11:50 | 34.58146 | -12.64245 | 35102 ft | 449 kts | 218° |
| 2026-05-06 11:50 | 34.53018 | -12.68579 | 35112 ft | 449 kts | 218° |
| 2026-05-06 11:51 | 34.47888 | -12.72897 | 35114 ft | 449 kts | 218° |
| 2026-05-06 11:51 | 34.42756 | -12.77203 | 35104 ft | 449 kts | 218° |
| 2026-05-06 11:52 | 34.37631 | -12.81504 | 35115 ft | 448 kts | 218° |
| 2026-05-06 11:52 | 34.32508 | -12.85792 | 35117 ft | 447 kts | 218° |
| 2026-05-06 11:53 | 34.27391 | -12.90077 | 35103 ft | 447 kts | 218° |
| 2026-05-06 11:53 | 34.22282 | -12.94371 | 35110 ft | 447 kts | 218° |
| 2026-05-06 11:54 | 34.17183 | -12.98680 | 35115 ft | 447 kts | 218° |
| 2026-05-06 11:54 | 34.12083 | -13.02991 | 35121 ft | 448 kts | 218° |
| 2026-05-06 11:55 | 34.06974 | -13.07284 | 35128 ft | 447 kts | 218° |
| 2026-05-06 11:55 | 34.01865 | -13.11574 | 35093 ft | 447 kts | 218° |
| 2026-05-06 11:56 | 33.96839 | -13.15791 | 35096 ft | 447 kts | 218° |
| 2026-05-06 11:56 | 33.91734 | -13.20057 | 35107 ft | 447 kts | 218° |
| 2026-05-06 11:57 | 33.86629 | -13.24325 | 35113 ft | 447 kts | 218° |
| 2026-05-06 11:57 | 33.81525 | -13.28586 | 35108 ft | 446 kts | 218° |
| 2026-05-06 11:58 | 33.76425 | -13.32835 | 35116 ft | 446 kts | 218° |
| 2026-05-06 11:58 | 33.71324 | -13.37085 | 35091 ft | 446 kts | 218° |
| 2026-05-06 11:59 | 33.66225 | -13.41321 | 35091 ft | 445 kts | 218° |
| 2026-05-06 11:59 | 33.61131 | -13.45551 | 35095 ft | 445 kts | 218° |
| 2026-05-06 12:00 | 33.56039 | -13.49772 | 35082 ft | 445 kts | 218° |
| 2026-05-06 12:00 | 33.50940 | -13.53984 | 35098 ft | 445 kts | 218° |
| 2026-05-06 12:01 | 33.45835 | -13.58206 | 35056 ft | 446 kts | 218° |
| 2026-05-06 12:01 | 33.40733 | -13.62424 | 35081 ft | 446 kts | 218° |
| 2026-05-06 12:02 | 33.35629 | -13.66638 | 35091 ft | 446 kts | 218° |
| 2026-05-06 12:02 | 33.30552 | -13.70818 | 35096 ft | 446 kts | 218° |
| 2026-05-06 12:03 | 33.25429 | -13.75013 | 35097 ft | 446 kts | 218° |
| 2026-05-06 12:03 | 33.20307 | -13.79204 | 35103 ft | 446 kts | 218° |
| 2026-05-06 12:04 | 33.15188 | -13.83403 | 35092 ft | 446 kts | 218° |
| 2026-05-06 12:04 | 33.10057 | -13.87590 | 35084 ft | 447 kts | 217° |
| 2026-05-06 12:05 | 33.04914 | -13.91753 | 35088 ft | 447 kts | 217° |
| 2026-05-06 12:05 | 32.99757 | -13.95921 | 35093 ft | 448 kts | 217° |
| 2026-05-06 12:06 | 32.94599 | -14.00095 | 35097 ft | 448 kts | 217° |
| 2026-05-06 12:06 | 32.90305 | -14.03559 | 35100 ft | 449 kts | 217° |
| 2026-05-06 12:07 | 32.85144 | -14.07731 | 35100 ft | 448 kts | 217° |
| 2026-05-06 12:07 | 32.79984 | -14.11895 | 35110 ft | 448 kts | 217° |
| 2026-05-06 12:08 | 32.74821 | -14.16052 | 35115 ft | 448 kts | 217° |
| 2026-05-06 12:08 | 32.69655 | -14.20195 | 35119 ft | 448 kts | 217° |
| 2026-05-06 12:09 | 32.64484 | -14.24336 | 35096 ft | 449 kts | 217° |
| 2026-05-06 12:09 | 32.59298 | -14.28492 | 35096 ft | 451 kts | 217° |
| 2026-05-06 12:10 | 32.54094 | -14.32658 | 35099 ft | 452 kts | 217° |
| 2026-05-06 12:10 | 32.48880 | -14.36820 | 35105 ft | 452 kts | 217° |
| 2026-05-06 12:11 | 32.43664 | -14.40987 | 35107 ft | 452 kts | 217° |
| 2026-05-06 12:11 | 32.38442 | -14.45148 | 35107 ft | 453 kts | 217° |
| 2026-05-06 12:12 | 32.33213 | -14.49300 | 35112 ft | 453 kts | 217° |
| 2026-05-06 12:12 | 32.27986 | -14.53449 | 35112 ft | 452 kts | 217° |
| 2026-05-06 12:13 | 32.22768 | -14.57585 | 35103 ft | 452 kts | 217° |
| 2026-05-06 12:13 | 32.17542 | -14.61736 | 35089 ft | 454 kts | 217° |
| 2026-05-06 12:14 | 32.12289 | -14.65891 | 35093 ft | 455 kts | 217° |
| 2026-05-06 12:14 | 32.07020 | -14.70040 | 35096 ft | 456 kts | 217° |
| 2026-05-06 12:15 | 32.01742 | -14.74199 | 35079 ft | 456 kts | 217° |
| 2026-05-06 12:15 | 31.96471 | -14.78352 | 35100 ft | 456 kts | 217° |
| 2026-05-06 12:16 | 31.91196 | -14.82506 | 35109 ft | 456 kts | 217° |
| 2026-05-06 12:16 | 31.85927 | -14.86651 | 35118 ft | 455 kts | 217° |
| 2026-05-06 12:17 | 31.80657 | -14.90789 | 35117 ft | 456 kts | 217° |
| 2026-05-06 12:17 | 31.75411 | -14.94884 | 35090 ft | 457 kts | 217° |
| 2026-05-06 12:18 | 31.70107 | -14.99024 | 35079 ft | 458 kts | 217° |
| 2026-05-06 12:18 | 31.64802 | -15.03182 | 35092 ft | 459 kts | 217° |
| 2026-05-06 12:19 | 31.59490 | -15.07330 | 35094 ft | 459 kts | 217° |
| 2026-05-06 12:19 | 31.54165 | -15.11477 | 35100 ft | 459 kts | 217° |
| 2026-05-06 12:20 | 31.48841 | -15.15620 | 35102 ft | 460 kts | 217° |
| 2026-05-06 12:20 | 31.43505 | -15.19757 | 35108 ft | 460 kts | 217° |
| 2026-05-06 12:21 | 31.38179 | -15.23882 | 35115 ft | 459 kts | 216° |
| 2026-05-06 12:21 | 31.32854 | -15.28003 | 35118 ft | 459 kts | 216° |
| 2026-05-06 12:22 | 31.27472 | -15.32014 | 35118 ft | 459 kts | 213° |
| 2026-05-06 12:22 | 31.21864 | -15.35620 | 35118 ft | 460 kts | 211° |
| 2026-05-06 12:23 | 31.16176 | -15.39068 | 35120 ft | 460 kts | 211° |
| 2026-05-06 12:23 | 31.10527 | -15.42591 | 35113 ft | 460 kts | 211° |
| 2026-05-06 12:24 | 31.04925 | -15.46177 | 35120 ft | 459 kts | 212° |
| 2026-05-06 12:24 | 30.99331 | -15.49759 | 35114 ft | 459 kts | 211° |
| 2026-05-06 12:25 | 30.93722 | -15.53314 | 35113 ft | 459 kts | 211° |
| 2026-05-06 12:25 | 30.88107 | -15.56857 | 35116 ft | 459 kts | 211° |
| 2026-05-06 12:26 | 30.82500 | -15.60398 | 35101 ft | 459 kts | 211° |
| 2026-05-06 12:26 | 30.76931 | -15.63925 | 35102 ft | 459 kts | 211° |
| 2026-05-06 12:27 | 30.71313 | -15.67476 | 35094 ft | 460 kts | 211° |
| 2026-05-06 12:27 | 30.65667 | -15.71025 | 35090 ft | 462 kts | 211° |
| 2026-05-06 12:28 | 30.60016 | -15.74581 | 35093 ft | 462 kts | 211° |
| 2026-05-06 12:28 | 30.54364 | -15.78142 | 35079 ft | 463 kts | 211° |
| 2026-05-06 12:29 | 30.48708 | -15.81700 | 35101 ft | 462 kts | 211° |
| 2026-05-06 12:29 | 30.43046 | -15.85246 | 35099 ft | 462 kts | 211° |
| 2026-05-06 12:30 | 30.37385 | -15.88780 | 35105 ft | 462 kts | 211° |
| 2026-05-06 12:30 | 30.31727 | -15.92308 | 35105 ft | 462 kts | 211° |
| 2026-05-06 12:31 | 30.26073 | -15.95840 | 35099 ft | 462 kts | 211° |
| 2026-05-06 12:31 | 30.20418 | -15.99371 | 35094 ft | 462 kts | 211° |
| 2026-05-06 12:32 | 30.14752 | -16.02899 | 35056 ft | 464 kts | 211° |
| 2026-05-06 12:32 | 30.09068 | -16.06440 | 35072 ft | 465 kts | 211° |
| 2026-05-06 12:33 | 30.03374 | -16.09982 | 35067 ft | 465 kts | 211° |
| 2026-05-06 12:33 | 29.97669 | -16.13514 | 35069 ft | 466 kts | 211° |
| 2026-05-06 12:34 | 29.91955 | -16.17048 | 35069 ft | 466 kts | 210° |
| 2026-05-06 12:34 | 29.86249 | -16.20582 | 35075 ft | 466 kts | 210° |
| 2026-05-06 12:35 | 29.80578 | -16.24094 | 35079 ft | 466 kts | 210° |
| 2026-05-06 12:35 | 29.74930 | -16.27575 | 35081 ft | 466 kts | 210° |
| 2026-05-06 12:36 | 29.69208 | -16.31090 | 35077 ft | 466 kts | 210° |
| 2026-05-06 12:36 | 29.63498 | -16.34600 | 35079 ft | 465 kts | 210° |
| 2026-05-06 12:37 | 29.57949 | -16.38405 | 35035 ft | 463 kts | 221° |
| 2026-05-06 12:37 | 29.52987 | -16.43118 | 35040 ft | 464 kts | 222° |
| 2026-05-06 12:38 | 29.47998 | -16.47828 | 35044 ft | 465 kts | 222° |
| 2026-05-06 12:38 | 29.42996 | -16.52518 | 35048 ft | 465 kts | 222° |
| 2026-05-06 12:39 | 29.37993 | -16.57221 | 35051 ft | 465 kts | 222° |
| 2026-05-06 12:39 | 29.32989 | -16.61926 | 35048 ft | 465 kts | 221° |
| 2026-05-06 12:40 | 29.27991 | -16.66624 | 35054 ft | 465 kts | 221° |
| 2026-05-06 12:40 | 29.25490 | -16.68970 | 34897 ft | 463 kts | 221° |
| 2026-05-06 12:40 | 29.22983 | -16.71318 | 33823 ft | 470 kts | 222° |
| 2026-05-06 12:41 | 29.20431 | -16.73708 | 32558 ft | 478 kts | 221° |
| 2026-05-06 12:41 | 29.17849 | -16.76127 | 31424 ft | 481 kts | 221° |
| 2026-05-06 12:41 | 29.15256 | -16.78553 | 30334 ft | 482 kts | 221° |
| 2026-05-06 12:41 | 29.12652 | -16.80985 | 29061 ft | 483 kts | 221° |
| 2026-05-06 12:42 | 29.10082 | -16.83381 | 27759 ft | 483 kts | 221° |
| 2026-05-06 12:42 | 29.07480 | -16.85808 | 26413 ft | 483 kts | 221° |
| 2026-05-06 12:42 | 29.04874 | -16.88240 | 25041 ft | 483 kts | 221° |
| 2026-05-06 12:42 | 29.02266 | -16.90672 | 23783 ft | 482 kts | 221° |
| 2026-05-06 12:43 | 28.99704 | -16.93057 | 22870 ft | 471 kts | 221° |
| 2026-05-06 12:43 | 28.97186 | -16.95398 | 21952 ft | 463 kts | 221° |
| 2026-05-06 12:43 | 28.94704 | -16.97704 | 21070 ft | 457 kts | 221° |
| 2026-05-06 12:43 | 28.92253 | -16.99982 | 20204 ft | 452 kts | 221° |
| 2026-05-06 12:44 | 28.89831 | -17.02234 | 19379 ft | 447 kts | 221° |
| 2026-05-06 12:44 | 28.87434 | -17.04464 | 18590 ft | 442 kts | 221° |
| 2026-05-06 12:44 | 28.85060 | -17.06671 | 17738 ft | 438 kts | 221° |
| 2026-05-06 12:44 | 28.82704 | -17.08854 | 16910 ft | 434 kts | 221° |
| 2026-05-06 12:45 | 28.80370 | -17.11012 | 16122 ft | 430 kts | 221° |
| 2026-05-06 12:45 | 28.78051 | -17.13156 | 15384 ft | 426 kts | 221° |
| 2026-05-06 12:45 | 28.73486 | -17.17377 | 13937 ft | 420 kts | 221° |
| 2026-05-06 12:46 | 28.71228 | -17.19463 | 13170 ft | 416 kts | 221° |
| 2026-05-06 12:46 | 28.68990 | -17.21531 | 12427 ft | 412 kts | 221° |
| 2026-05-06 12:46 | 28.66775 | -17.23581 | 11711 ft | 408 kts | 221° |
| 2026-05-06 12:46 | 28.64607 | -17.25586 | 11470 ft | 392 kts | 221° |
| 2026-05-06 12:47 | 28.62539 | -17.27490 | 11346 ft | 373 kts | 220° |
| 2026-05-06 12:47 | 28.60565 | -17.29303 | 11222 ft | 356 kts | 220° |
| 2026-05-06 12:47 | 28.58680 | -17.31036 | 11096 ft | 341 kts | 221° |
| 2026-05-06 12:47 | 28.56874 | -17.32697 | 10982 ft | 327 kts | 221° |
| 2026-05-06 12:48 | 28.55143 | -17.34292 | 10852 ft | 314 kts | 221° |
| 2026-05-06 12:48 | 28.53474 | -17.35828 | 10723 ft | 304 kts | 221° |
| 2026-05-06 12:48 | 28.51847 | -17.37325 | 10469 ft | 298 kts | 221° |
| 2026-05-06 12:48 | 28.50248 | -17.38798 | 10256 ft | 294 kts | 221° |
| 2026-05-06 12:49 | 28.48667 | -17.40253 | 10114 ft | 293 kts | 221° |
| 2026-05-06 12:49 | 28.47100 | -17.41693 | 9901 ft | 295 kts | 221° |
| 2026-05-06 12:49 | 28.45504 | -17.43177 | 9428 ft | 295 kts | 224° |
| 2026-05-06 12:49 | 28.44203 | -17.44947 | 8970 ft | 293 kts | 242° |
| 2026-05-06 12:50 | 28.43431 | -17.47049 | 8570 ft | 288 kts | 257° |
| 2026-05-06 12:50 | 28.43209 | -17.49308 | 8129 ft | 286 kts | 271° |
| 2026-05-06 12:50 | 28.43197 | -17.51548 | 7792 ft | 282 kts | 271° |
| 2026-05-06 12:50 | 28.43173 | -17.53774 | 7369 ft | 282 kts | 270° |
| 2026-05-06 12:51 | 28.43141 | -17.55995 | 6958 ft | 281 kts | 270° |
| 2026-05-06 12:51 | 28.43107 | -17.58213 | 6563 ft | 280 kts | 270° |
| 2026-05-06 12:51 | 28.43073 | -17.60419 | 6138 ft | 279 kts | 270° |
| 2026-05-06 12:51 | 28.43042 | -17.62621 | 5711 ft | 278 kts | 270° |
| 2026-05-06 12:52 | 28.43012 | -17.64804 | 5265 ft | 274 kts | 270° |
| 2026-05-06 12:52 | 28.42982 | -17.66961 | 4551 ft | 272 kts | 270° |
| 2026-05-06 12:52 | 28.42951 | -17.69087 | 4029 ft | 263 kts | 270° |
| 2026-05-06 12:52 | 28.42922 | -17.71065 | 3952 ft | 237 kts | 271° |
| 2026-05-06 12:53 | 28.43030 | -17.72868 | 3886 ft | 225 kts | 290° |
| 2026-05-06 12:53 | 28.43800 | -17.74323 | 3805 ft | 211 kts | 319° |
| 2026-05-06 12:53 | 28.45048 | -17.75140 | 3509 ft | 209 kts | 347° |
| 2026-05-06 12:53 | 28.46493 | -17.75260 | 3187 ft | 207 kts | 359° |
| 2026-05-06 12:54 | 28.47426 | -17.75271 | 3036 ft | 198 kts | 359° |
| 2026-05-06 12:54 | 28.48724 | -17.75292 | 2945 ft | 177 kts | 359° |
| 2026-05-06 12:54 | 28.49902 | -17.75313 | 2690 ft | 165 kts | 359° |
| 2026-05-06 12:54 | 28.51041 | -17.75336 | 2339 ft | 159 kts | 358° |
| 2026-05-06 12:55 | 28.52105 | -17.75359 | 2069 ft | 149 kts | 359° |
| 2026-05-06 12:55 | 28.53121 | -17.75370 | 1775 ft | 144 kts | 359° |
| 2026-05-06 12:55 | 28.54103 | -17.75391 | 1530 ft | 141 kts | 358° |
| 2026-05-06 12:55 | 28.55074 | -17.75438 | 1356 ft | 139 kts | 356° |
| 2026-05-06 12:56 | 28.56040 | -17.75463 | 1278 ft | 139 kts | 1° |
| 2026-05-06 12:56 | 28.57008 | -17.75418 | 1208 ft | 140 kts | 0° |
| 2026-05-06 12:56 | 28.57981 | -17.75447 | 1032 ft | 140 kts | 358° |
| 2026-05-06 12:56 | 28.58951 | -17.75486 | 825 ft | 139 kts | 359° |
| 2026-05-06 12:57 | 28.59922 | -17.75498 | 578 ft | 139 kts | 358° |
| 2026-05-06 12:57 | 28.60891 | -17.75526 | 356 ft | 139 kts | 359° |
| 2026-05-06 12:57 | 28.61859 | -17.75545 | 139 ft | 138 kts | 360° |
| 2026-05-06 12:57 | 28.62697 | -17.75561 | 105 ft | 98 kts | 359° |
| 2026-05-06 12:58 | 28.63207 | -17.75571 | 90 ft | 49 kts | 359° |
| 2026-05-06 12:58 | 28.63498 | -17.75578 | 72 ft | 24 kts | 358° |
| 2026-05-06 12:58 | 28.63590 | -17.75610 | 73 ft | 14 kts | 338° |
| 2026-05-06 12:58 | 28.63618 | -17.75581 | 70 ft | 8 kts | 140° |
| 2026-05-06 12:59 | 28.63529 | -17.75576 | 69 ft | 14 kts | 180° |
| 2026-05-06 12:59 | 28.63439 | -17.75575 | 82 ft | 12 kts | 179° |
| 2026-05-06 12:59 | 28.63353 | -17.75574 | 83 ft | 15 kts | 179° |
| 2026-05-06 12:59 | 28.63230 | -17.75572 | 89 ft | 19 kts | 179° |
| 2026-05-06 13:00 | 28.63077 | -17.75568 | 93 ft | 25 kts | 179° |
| 2026-05-06 13:00 | 28.62898 | -17.75566 | 99 ft | 26 kts | 179° |
| 2026-05-06 13:00 | 28.62725 | -17.75561 | 104 ft | 22 kts | 175° |
| 2026-05-06 13:00 | 28.62607 | -17.75482 | 109 ft | 19 kts | 140° |
| 2026-05-06 13:01 | 28.62491 | -17.75447 | 111 ft | 18 kts | 179° |
| 2026-05-06 13:01 | 28.62368 | -17.75445 | 114 ft | 17 kts | 179° |
| 2026-05-06 13:01 | 28.62264 | -17.75443 | 114 ft | 13 kts | 179° |
| 2026-05-06 13:01 | 28.62200 | -17.75425 | 114 ft | 7 kts | 119° |
| 2026-05-06 13:02 | 28.62200 | -17.75380 | 114 ft | 4 kts | 88° |
| 2026-05-06 13:02 | 28.62200 | -17.75363 | 114 ft | 4 kts | 89° |
| 2026-05-06 13:02 | 28.62200 | -17.75359 | 114 ft | 0 kts | 89° |